sensor_id;sensor_type;location;lat;lon;timestamp;temperature;humidity
10848;DHT22;5477;48.806;9.154;2024-01-11T00:00:54;-4.50;99.90
10848;DHT22;5477;48.806;9.154;2024-01-11T00:03:22;-4.50;99.90
10848;DHT22;5477;48.806;9.154;2024-01-11T00:05:51;-4.50;99.90
10848;DHT22;5477;48.806;9.154;2024-01-11T00:08:19;-4.50;99.90
10848;DHT22;5477;48.806;9.154;2024-01-11T00:10:47;-4.50;99.90
10848;DHT22;5477;48.806;9.154;2024-01-11T00:13:15;-4.50;99.90
10848;DHT22;5477;48.806;9.154;2024-01-11T00:15:43;-4.50;99.90
10848;DHT22;5477;48.806;9.154;2024-01-11T00:18:13;-4.50;99.90
10848;DHT22;5477;48.806;9.154;2024-01-11T00:20:41;-4.50;99.90
10848;DHT22;5477;48.806;9.154;2024-01-11T00:23:10;-4.50;99.90
10848;DHT22;5477;48.806;9.154;2024-01-11T00:25:38;-4.50;99.90
10848;DHT22;5477;48.806;9.154;2024-01-11T00:28:06;-4.50;99.90
10848;DHT22;5477;48.806;9.154;2024-01-11T00:30:34;-4.50;99.90
10848;DHT22;5477;48.806;9.154;2024-01-11T00:33:02;-4.50;99.90
10848;DHT22;5477;48.806;9.154;2024-01-11T00:35:32;-4.50;99.90
10848;DHT22;5477;48.806;9.154;2024-01-11T00:38:00;-4.60;99.90
10848;DHT22;5477;48.806;9.154;2024-01-11T00:40:28;-4.50;99.90
10848;DHT22;5477;48.806;9.154;2024-01-11T00:42:56;-4.60;99.90
10848;DHT22;5477;48.806;9.154;2024-01-11T00:45:24;-4.60;99.90
10848;DHT22;5477;48.806;9.154;2024-01-11T00:47:52;-4.60;99.90
10848;DHT22;5477;48.806;9.154;2024-01-11T00:50:20;-4.70;99.90
10848;DHT22;5477;48.806;9.154;2024-01-11T00:52:49;-4.70;99.90
10848;DHT22;5477;48.806;9.154;2024-01-11T00:55:17;-4.80;99.90
10848;DHT22;5477;48.806;9.154;2024-01-11T00:57:45;-4.80;99.90
10848;DHT22;5477;48.806;9.154;2024-01-11T01:00:14;-4.80;99.90
10848;DHT22;5477;48.806;9.154;2024-01-11T01:02:42;-4.80;99.90
10848;DHT22;5477;48.806;9.154;2024-01-11T01:05:10;-4.80;99.90
10848;DHT22;5477;48.806;9.154;2024-01-11T01:07:38;-4.80;99.90
10848;DHT22;5477;48.806;9.154;2024-01-11T01:10:08;-4.70;99.90
10848;DHT22;5477;48.806;9.154;2024-01-11T01:12:36;-4.70;99.90
10848;DHT22;5477;48.806;9.154;2024-01-11T01:15:05;-4.70;99.90
10848;DHT22;5477;48.806;9.154;2024-01-11T01:17:33;-4.70;99.90
10848;DHT22;5477;48.806;9.154;2024-01-11T01:20:02;-4.80;99.90
10848;DHT22;5477;48.806;9.154;2024-01-11T01:22:30;-4.80;99.90
10848;DHT22;5477;48.806;9.154;2024-01-11T01:24:58;-4.80;99.90
10848;DHT22;5477;48.806;9.154;2024-01-11T01:27:28;-4.80;99.90
10848;DHT22;5477;48.806;9.154;2024-01-11T01:29:56;-4.90;99.90
10848;DHT22;5477;48.806;9.154;2024-01-11T01:32:24;-4.90;99.90
10848;DHT22;5477;48.806;9.154;2024-01-11T01:34:52;-4.80;99.90
10848;DHT22;5477;48.806;9.154;2024-01-11T01:37:20;-4.80;99.90
10848;DHT22;5477;48.806;9.154;2024-01-11T01:39:48;-4.80;99.90
10848;DHT22;5477;48.806;9.154;2024-01-11T01:42:16;-4.80;99.90
10848;DHT22;5477;48.806;9.154;2024-01-11T01:44:45;-4.80;99.90
10848;DHT22;5477;48.806;9.154;2024-01-11T01:47:13;-4.90;99.90
10848;DHT22;5477;48.806;9.154;2024-01-11T01:49:43;-4.90;99.90
10848;DHT22;5477;48.806;9.154;2024-01-11T01:52:13;-4.80;99.90
10848;DHT22;5477;48.806;9.154;2024-01-11T01:54:42;-4.80;99.90
10848;DHT22;5477;48.806;9.154;2024-01-11T01:57:10;-4.80;99.90
10848;DHT22;5477;48.806;9.154;2024-01-11T01:59:39;-4.80;99.90
10848;DHT22;5477;48.806;9.154;2024-01-11T02:02:09;-4.80;99.90
10848;DHT22;5477;48.806;9.154;2024-01-11T02:04:38;-4.80;99.90
10848;DHT22;5477;48.806;9.154;2024-01-11T02:07:06;-4.80;99.90
10848;DHT22;5477;48.806;9.154;2024-01-11T02:09:35;-4.80;99.90
10848;DHT22;5477;48.806;9.154;2024-01-11T02:12:04;-4.90;99.90
10848;DHT22;5477;48.806;9.154;2024-01-11T02:14:33;-4.90;99.90
10848;DHT22;5477;48.806;9.154;2024-01-11T02:17:01;-4.90;99.90
10848;DHT22;5477;48.806;9.154;2024-01-11T02:19:30;-5.00;99.90
10848;DHT22;5477;48.806;9.154;2024-01-11T02:22:12;-5.00;99.90
10848;DHT22;5477;48.806;9.154;2024-01-11T02:24:42;-5.10;99.90
10848;DHT22;5477;48.806;9.154;2024-01-11T02:27:10;-5.10;99.90
10848;DHT22;5477;48.806;9.154;2024-01-11T02:29:38;-5.10;99.90
10848;DHT22;5477;48.806;9.154;2024-01-11T02:32:06;-5.00;99.90
10848;DHT22;5477;48.806;9.154;2024-01-11T02:34:35;-5.00;99.90
10848;DHT22;5477;48.806;9.154;2024-01-11T02:37:04;-5.00;99.90
10848;DHT22;5477;48.806;9.154;2024-01-11T02:39:33;-5.00;99.90
10848;DHT22;5477;48.806;9.154;2024-01-11T02:42:03;-5.10;99.90
10848;DHT22;5477;48.806;9.154;2024-01-11T02:44:31;-5.20;99.90
10848;DHT22;5477;48.806;9.154;2024-01-11T02:46:59;-5.20;99.90
10848;DHT22;5477;48.806;9.154;2024-01-11T02:49:27;-5.20;99.90
10848;DHT22;5477;48.806;9.154;2024-01-11T02:51:55;-5.30;99.90
10848;DHT22;5477;48.806;9.154;2024-01-11T02:54:23;-5.30;99.90
10848;DHT22;5477;48.806;9.154;2024-01-11T02:56:52;-5.30;99.90
10848;DHT22;5477;48.806;9.154;2024-01-11T02:59:21;-5.20;99.90
10848;DHT22;5477;48.806;9.154;2024-01-11T03:01:50;-5.20;99.90
10848;DHT22;5477;48.806;9.154;2024-01-11T03:04:18;-5.30;99.90
10848;DHT22;5477;48.806;9.154;2024-01-11T03:06:46;-5.30;99.90
10848;DHT22;5477;48.806;9.154;2024-01-11T03:09:14;-5.30;99.90
10848;DHT22;5477;48.806;9.154;2024-01-11T03:11:42;-5.40;99.90
10848;DHT22;5477;48.806;9.154;2024-01-11T03:14:10;-5.40;99.90
10848;DHT22;5477;48.806;9.154;2024-01-11T03:16:39;-5.40;99.90
10848;DHT22;5477;48.806;9.154;2024-01-11T03:19:08;-5.40;99.90
10848;DHT22;5477;48.806;9.154;2024-01-11T03:21:41;-5.40;99.90
10848;DHT22;5477;48.806;9.154;2024-01-11T03:24:09;-5.40;99.90
10848;DHT22;5477;48.806;9.154;2024-01-11T03:26:37;-5.20;99.90
10848;DHT22;5477;48.806;9.154;2024-01-11T03:29:05;-5.20;99.90
10848;DHT22;5477;48.806;9.154;2024-01-11T03:31:33;-5.00;99.90
10848;DHT22;5477;48.806;9.154;2024-01-11T03:34:02;-5.10;99.90
10848;DHT22;5477;48.806;9.154;2024-01-11T03:36:30;-5.10;99.90
10848;DHT22;5477;48.806;9.154;2024-01-11T03:38:58;-5.10;99.90
10848;DHT22;5477;48.806;9.154;2024-01-11T03:41:26;-5.00;99.90
10848;DHT22;5477;48.806;9.154;2024-01-11T03:43:54;-5.10;99.90
10848;DHT22;5477;48.806;9.154;2024-01-11T03:46:23;-5.20;99.90
10848;DHT22;5477;48.806;9.154;2024-01-11T03:48:50;-5.30;99.90
10848;DHT22;5477;48.806;9.154;2024-01-11T03:51:20;-5.40;99.90
10848;DHT22;5477;48.806;9.154;2024-01-11T03:53:48;-5.40;99.90
10848;DHT22;5477;48.806;9.154;2024-01-11T03:56:16;-5.40;99.90
10848;DHT22;5477;48.806;9.154;2024-01-11T03:58:44;-5.40;99.90
10848;DHT22;5477;48.806;9.154;2024-01-11T04:01:12;-5.40;99.90
10848;DHT22;5477;48.806;9.154;2024-01-11T04:03:42;-5.40;99.90
10848;DHT22;5477;48.806;9.154;2024-01-11T04:06:20;-5.40;99.90
10848;DHT22;5477;48.806;9.154;2024-01-11T04:08:49;-5.50;99.90
10848;DHT22;5477;48.806;9.154;2024-01-11T04:11:18;-5.50;99.90
10848;DHT22;5477;48.806;9.154;2024-01-11T04:13:46;-5.50;99.90
10848;DHT22;5477;48.806;9.154;2024-01-11T04:16:14;-5.60;99.90
10848;DHT22;5477;48.806;9.154;2024-01-11T04:18:42;-5.70;99.90
10848;DHT22;5477;48.806;9.154;2024-01-11T04:21:21;-5.70;99.90
10848;DHT22;5477;48.806;9.154;2024-01-11T04:23:50;-5.70;99.90
10848;DHT22;5477;48.806;9.154;2024-01-11T04:26:18;-5.60;99.90
10848;DHT22;5477;48.806;9.154;2024-01-11T04:28:46;-5.60;99.90
10848;DHT22;5477;48.806;9.154;2024-01-11T04:31:15;-5.60;99.90
10848;DHT22;5477;48.806;9.154;2024-01-11T04:33:44;-5.60;99.90
10848;DHT22;5477;48.806;9.154;2024-01-11T04:36:13;-5.60;99.90
10848;DHT22;5477;48.806;9.154;2024-01-11T04:38:42;-5.60;99.90
10848;DHT22;5477;48.806;9.154;2024-01-11T04:41:12;-5.60;99.90
10848;DHT22;5477;48.806;9.154;2024-01-11T04:43:40;-5.60;99.90
10848;DHT22;5477;48.806;9.154;2024-01-11T04:46:16;-5.60;99.90
10848;DHT22;5477;48.806;9.154;2024-01-11T04:48:45;-5.60;99.90
10848;DHT22;5477;48.806;9.154;2024-01-11T04:51:14;-5.60;99.90
10848;DHT22;5477;48.806;9.154;2024-01-11T04:53:44;-5.60;99.90
10848;DHT22;5477;48.806;9.154;2024-01-11T04:56:14;-5.60;99.90
10848;DHT22;5477;48.806;9.154;2024-01-11T04:58:44;-5.60;99.90
10848;DHT22;5477;48.806;9.154;2024-01-11T05:01:13;-5.50;99.90
10848;DHT22;5477;48.806;9.154;2024-01-11T05:03:42;-5.60;99.90
10848;DHT22;5477;48.806;9.154;2024-01-11T05:06:15;-5.50;99.90
10848;DHT22;5477;48.806;9.154;2024-01-11T05:08:45;-5.50;99.90
10848;DHT22;5477;48.806;9.154;2024-01-11T05:11:16;-5.50;99.90
10848;DHT22;5477;48.806;9.154;2024-01-11T05:13:45;-5.50;99.90
10848;DHT22;5477;48.806;9.154;2024-01-11T05:16:19;-5.50;99.90
10848;DHT22;5477;48.806;9.154;2024-01-11T05:18:47;-5.50;99.90
10848;DHT22;5477;48.806;9.154;2024-01-11T05:21:16;-5.50;99.90
10848;DHT22;5477;48.806;9.154;2024-01-11T05:23:45;-5.40;99.90
10848;DHT22;5477;48.806;9.154;2024-01-11T05:26:15;-5.40;99.90
10848;DHT22;5477;48.806;9.154;2024-01-11T05:28:43;-5.40;99.90
10848;DHT22;5477;48.806;9.154;2024-01-11T05:31:12;-5.30;99.90
10848;DHT22;5477;48.806;9.154;2024-01-11T05:33:42;-5.40;99.90
10848;DHT22;5477;48.806;9.154;2024-01-11T05:36:11;-5.40;99.90
10848;DHT22;5477;48.806;9.154;2024-01-11T05:38:39;-5.50;99.90
10848;DHT22;5477;48.806;9.154;2024-01-11T05:41:09;-5.50;99.90
10848;DHT22;5477;48.806;9.154;2024-01-11T05:43:37;-5.60;99.90
10848;DHT22;5477;48.806;9.154;2024-01-11T05:46:05;-5.60;99.90
10848;DHT22;5477;48.806;9.154;2024-01-11T05:48:34;-5.70;99.90
10848;DHT22;5477;48.806;9.154;2024-01-11T05:51:02;-5.70;99.90
10848;DHT22;5477;48.806;9.154;2024-01-11T05:53:30;-5.70;99.90
10848;DHT22;5477;48.806;9.154;2024-01-11T05:56:02;-5.70;99.90
10848;DHT22;5477;48.806;9.154;2024-01-11T05:58:36;-5.80;99.90
10848;DHT22;5477;48.806;9.154;2024-01-11T06:01:04;-5.80;99.90
10848;DHT22;5477;48.806;9.154;2024-01-11T06:03:32;-5.90;99.90
10848;DHT22;5477;48.806;9.154;2024-01-11T06:06:03;-5.80;99.90
10848;DHT22;5477;48.806;9.154;2024-01-11T06:08:31;-5.90;99.90
10848;DHT22;5477;48.806;9.154;2024-01-11T06:10:59;-5.90;99.90
10848;DHT22;5477;48.806;9.154;2024-01-11T06:13:27;-5.80;99.90
10848;DHT22;5477;48.806;9.154;2024-01-11T06:15:57;-5.80;99.90
10848;DHT22;5477;48.806;9.154;2024-01-11T06:18:25;-5.80;99.90
10848;DHT22;5477;48.806;9.154;2024-01-11T06:20:53;-5.80;99.90
10848;DHT22;5477;48.806;9.154;2024-01-11T06:23:23;-5.80;99.90
10848;DHT22;5477;48.806;9.154;2024-01-11T06:25:52;-5.90;99.90
10848;DHT22;5477;48.806;9.154;2024-01-11T06:28:20;-5.80;99.90
10848;DHT22;5477;48.806;9.154;2024-01-11T06:30:48;-5.80;99.90
10848;DHT22;5477;48.806;9.154;2024-01-11T06:33:17;-5.80;99.90
10848;DHT22;5477;48.806;9.154;2024-01-11T06:35:45;-5.90;99.90
10848;DHT22;5477;48.806;9.154;2024-01-11T06:38:13;-6.00;99.90
10848;DHT22;5477;48.806;9.154;2024-01-11T06:40:41;-6.00;99.90
10848;DHT22;5477;48.806;9.154;2024-01-11T06:43:10;-6.00;99.90
10848;DHT22;5477;48.806;9.154;2024-01-11T06:45:38;-5.90;99.90
10848;DHT22;5477;48.806;9.154;2024-01-11T06:48:06;-5.90;99.90
10848;DHT22;5477;48.806;9.154;2024-01-11T06:50:35;-5.90;99.90
10848;DHT22;5477;48.806;9.154;2024-01-11T06:53:04;-5.90;99.90
10848;DHT22;5477;48.806;9.154;2024-01-11T06:55:32;-6.00;99.90
10848;DHT22;5477;48.806;9.154;2024-01-11T06:58:00;-6.00;99.90
10848;DHT22;5477;48.806;9.154;2024-01-11T07:00:29;-6.00;99.90
10848;DHT22;5477;48.806;9.154;2024-01-11T07:02:57;-6.00;99.90
10848;DHT22;5477;48.806;9.154;2024-01-11T07:05:25;-6.00;99.90
10848;DHT22;5477;48.806;9.154;2024-01-11T07:07:54;-6.00;99.90
10848;DHT22;5477;48.806;9.154;2024-01-11T07:10:22;-6.10;99.90
10848;DHT22;5477;48.806;9.154;2024-01-11T07:12:50;-6.10;99.90
10848;DHT22;5477;48.806;9.154;2024-01-11T07:15:18;-6.00;99.90
10848;DHT22;5477;48.806;9.154;2024-01-11T07:17:46;-5.90;99.90
10848;DHT22;5477;48.806;9.154;2024-01-11T07:20:15;-5.80;99.90
10848;DHT22;5477;48.806;9.154;2024-01-11T07:22:44;-5.90;99.90
10848;DHT22;5477;48.806;9.154;2024-01-11T07:25:13;-5.90;99.90
10848;DHT22;5477;48.806;9.154;2024-01-11T07:27:41;-6.00;99.90
10848;DHT22;5477;48.806;9.154;2024-01-11T07:30:11;-5.90;99.90
10848;DHT22;5477;48.806;9.154;2024-01-11T07:32:39;-5.80;99.90
10848;DHT22;5477;48.806;9.154;2024-01-11T07:35:08;-5.70;99.90
10848;DHT22;5477;48.806;9.154;2024-01-11T07:37:41;-5.60;99.90
10848;DHT22;5477;48.806;9.154;2024-01-11T07:40:10;-5.60;99.90
10848;DHT22;5477;48.806;9.154;2024-01-11T07:42:40;-5.50;99.90
10848;DHT22;5477;48.806;9.154;2024-01-11T07:45:09;-5.50;99.90
10848;DHT22;5477;48.806;9.154;2024-01-11T07:47:37;-5.50;99.90
10848;DHT22;5477;48.806;9.154;2024-01-11T07:50:06;-5.60;99.90
10848;DHT22;5477;48.806;9.154;2024-01-11T07:52:36;-5.80;99.90
10848;DHT22;5477;48.806;9.154;2024-01-11T07:55:05;-5.80;99.90
10848;DHT22;5477;48.806;9.154;2024-01-11T07:57:34;-5.70;99.90
10848;DHT22;5477;48.806;9.154;2024-01-11T08:00:05;-5.60;99.90
10848;DHT22;5477;48.806;9.154;2024-01-11T08:02:39;-5.60;99.90
10848;DHT22;5477;48.806;9.154;2024-01-11T08:05:08;-5.50;99.90
10848;DHT22;5477;48.806;9.154;2024-01-11T08:07:36;-5.40;99.90
10848;DHT22;5477;48.806;9.154;2024-01-11T08:10:06;-5.20;99.90
10848;DHT22;5477;48.806;9.154;2024-01-11T08:12:36;-5.10;99.90
10848;DHT22;5477;48.806;9.154;2024-01-11T08:15:06;-5.00;99.90
10848;DHT22;5477;48.806;9.154;2024-01-11T08:17:43;-5.00;99.90
10848;DHT22;5477;48.806;9.154;2024-01-11T08:20:14;-4.90;99.90
10848;DHT22;5477;48.806;9.154;2024-01-11T08:22:42;-4.80;99.90
10848;DHT22;5477;48.806;9.154;2024-01-11T08:25:10;-4.60;99.90
10848;DHT22;5477;48.806;9.154;2024-01-11T08:27:39;-4.60;99.90
10848;DHT22;5477;48.806;9.154;2024-01-11T08:30:09;-4.40;99.90
10848;DHT22;5477;48.806;9.154;2024-01-11T08:32:39;-4.30;99.90
10848;DHT22;5477;48.806;9.154;2024-01-11T08:35:09;-4.20;99.90
10848;DHT22;5477;48.806;9.154;2024-01-11T08:37:38;-4.20;99.90
10848;DHT22;5477;48.806;9.154;2024-01-11T08:40:07;-4.00;99.90
10848;DHT22;5477;48.806;9.154;2024-01-11T08:42:36;-3.90;99.90
10848;DHT22;5477;48.806;9.154;2024-01-11T08:45:05;-3.80;99.90
10848;DHT22;5477;48.806;9.154;2024-01-11T08:47:35;-3.80;99.90
10848;DHT22;5477;48.806;9.154;2024-01-11T08:50:06;-3.80;99.90
10848;DHT22;5477;48.806;9.154;2024-01-11T08:52:35;-3.80;99.90
10848;DHT22;5477;48.806;9.154;2024-01-11T08:55:03;-3.70;99.90
10848;DHT22;5477;48.806;9.154;2024-01-11T08:57:31;-3.60;99.90
10848;DHT22;5477;48.806;9.154;2024-01-11T08:59:59;-3.50;99.90
10848;DHT22;5477;48.806;9.154;2024-01-11T09:02:27;-3.50;99.90
10848;DHT22;5477;48.806;9.154;2024-01-11T09:04:57;-3.40;99.90
10848;DHT22;5477;48.806;9.154;2024-01-11T09:07:25;-3.30;99.90
10848;DHT22;5477;48.806;9.154;2024-01-11T09:09:53;-3.30;99.90
10848;DHT22;5477;48.806;9.154;2024-01-11T09:12:23;-3.30;99.90
10848;DHT22;5477;48.806;9.154;2024-01-11T09:14:51;-3.20;99.90
10848;DHT22;5477;48.806;9.154;2024-01-11T09:17:19;-3.10;99.90
10848;DHT22;5477;48.806;9.154;2024-01-11T09:19:48;-2.90;99.90
10848;DHT22;5477;48.806;9.154;2024-01-11T09:22:18;-2.90;99.90
10848;DHT22;5477;48.806;9.154;2024-01-11T09:24:46;-2.80;99.90
10848;DHT22;5477;48.806;9.154;2024-01-11T09:27:14;-2.70;99.90
10848;DHT22;5477;48.806;9.154;2024-01-11T09:29:43;-2.70;99.90
10848;DHT22;5477;48.806;9.154;2024-01-11T09:32:12;-2.50;99.90
10848;DHT22;5477;48.806;9.154;2024-01-11T09:34:41;-2.20;99.90
10848;DHT22;5477;48.806;9.154;2024-01-11T09:37:12;-2.00;99.90
10848;DHT22;5477;48.806;9.154;2024-01-11T09:39:41;-1.90;99.90
10848;DHT22;5477;48.806;9.154;2024-01-11T09:42:10;-1.70;99.90
10848;DHT22;5477;48.806;9.154;2024-01-11T09:44:39;-1.60;99.90
10848;DHT22;5477;48.806;9.154;2024-01-11T09:47:10;-1.50;99.90
10848;DHT22;5477;48.806;9.154;2024-01-11T09:49:43;-1.40;99.90
10848;DHT22;5477;48.806;9.154;2024-01-11T09:52:12;-1.40;99.90
10848;DHT22;5477;48.806;9.154;2024-01-11T09:54:43;-1.20;99.90
10848;DHT22;5477;48.806;9.154;2024-01-11T09:57:12;-1.20;99.90
10848;DHT22;5477;48.806;9.154;2024-01-11T09:59:41;-1.20;99.90
10848;DHT22;5477;48.806;9.154;2024-01-11T10:02:11;-1.10;99.90
10848;DHT22;5477;48.806;9.154;2024-01-11T10:04:42;-1.00;99.90
10848;DHT22;5477;48.806;9.154;2024-01-11T10:07:10;-0.80;99.90
10848;DHT22;5477;48.806;9.154;2024-01-11T10:09:39;-0.70;99.90
10848;DHT22;5477;48.806;9.154;2024-01-11T10:12:08;-0.50;99.90
10848;DHT22;5477;48.806;9.154;2024-01-11T10:14:36;-0.50;99.90
10848;DHT22;5477;48.806;9.154;2024-01-11T10:17:05;-0.40;99.90
10848;DHT22;5477;48.806;9.154;2024-01-11T10:19:33;-0.40;99.90
10848;DHT22;5477;48.806;9.154;2024-01-11T10:22:03;-0.30;99.90
10848;DHT22;5477;48.806;9.154;2024-01-11T10:24:31;-0.10;99.90
10848;DHT22;5477;48.806;9.154;2024-01-11T10:27:01;0.00;99.90
10848;DHT22;5477;48.806;9.154;2024-01-11T10:29:33;0.00;99.90
10848;DHT22;5477;48.806;9.154;2024-01-11T10:32:03;0.10;99.90
10848;DHT22;5477;48.806;9.154;2024-01-11T10:34:32;0.20;99.90
10848;DHT22;5477;48.806;9.154;2024-01-11T10:37:00;0.20;99.90
10848;DHT22;5477;48.806;9.154;2024-01-11T10:39:29;0.10;99.90
10848;DHT22;5477;48.806;9.154;2024-01-11T10:42:04;0.30;99.90
10848;DHT22;5477;48.806;9.154;2024-01-11T10:44:35;0.60;99.90
10848;DHT22;5477;48.806;9.154;2024-01-11T10:47:04;1.00;99.90
10848;DHT22;5477;48.806;9.154;2024-01-11T10:49:37;1.20;99.90
10848;DHT22;5477;48.806;9.154;2024-01-11T10:52:08;1.60;99.90
10848;DHT22;5477;48.806;9.154;2024-01-11T10:54:40;1.80;99.90
10848;DHT22;5477;48.806;9.154;2024-01-11T10:57:10;2.20;99.90
10848;DHT22;5477;48.806;9.154;2024-01-11T10:59:43;2.70;99.90
10848;DHT22;5477;48.806;9.154;2024-01-11T11:02:12;2.90;99.90
10848;DHT22;5477;48.806;9.154;2024-01-11T11:04:42;3.20;99.90
10848;DHT22;5477;48.806;9.154;2024-01-11T11:07:11;3.40;99.90
10848;DHT22;5477;48.806;9.154;2024-01-11T11:09:41;3.60;99.90
10848;DHT22;5477;48.806;9.154;2024-01-11T11:12:13;3.90;99.90
10848;DHT22;5477;48.806;9.154;2024-01-11T11:14:44;4.30;99.90
10848;DHT22;5477;48.806;9.154;2024-01-11T11:17:14;4.70;99.90
10848;DHT22;5477;48.806;9.154;2024-01-11T11:19:42;5.10;99.90
10848;DHT22;5477;48.806;9.154;2024-01-11T11:22:13;5.40;99.90
10848;DHT22;5477;48.806;9.154;2024-01-11T11:24:42;5.50;99.40
10848;DHT22;5477;48.806;9.154;2024-01-11T11:27:13;5.60;99.10
10848;DHT22;5477;48.806;9.154;2024-01-11T11:29:46;5.60;98.50
10848;DHT22;5477;48.806;9.154;2024-01-11T11:32:14;5.80;98.50
10848;DHT22;5477;48.806;9.154;2024-01-11T11:34:44;5.90;97.90
10848;DHT22;5477;48.806;9.154;2024-01-11T11:37:13;6.00;97.10
10848;DHT22;5477;48.806;9.154;2024-01-11T11:39:50;5.90;96.50
10848;DHT22;5477;48.806;9.154;2024-01-11T11:42:18;6.00;96.70
10848;DHT22;5477;48.806;9.154;2024-01-11T11:44:51;6.00;96.10
10848;DHT22;5477;48.806;9.154;2024-01-11T11:47:20;5.80;96.10
10848;DHT22;5477;48.806;9.154;2024-01-11T11:49:57;5.70;96.30
10848;DHT22;5477;48.806;9.154;2024-01-11T11:52:28;5.60;96.70
10848;DHT22;5477;48.806;9.154;2024-01-11T11:54:58;5.70;96.70
10848;DHT22;5477;48.806;9.154;2024-01-11T11:57:27;5.60;96.20
10848;DHT22;5477;48.806;9.154;2024-01-11T11:59:57;5.50;96.10
10848;DHT22;5477;48.806;9.154;2024-01-11T12:02:26;5.20;96.80
10848;DHT22;5477;48.806;9.154;2024-01-11T12:04:55;4.80;97.10
10848;DHT22;5477;48.806;9.154;2024-01-11T12:07:23;4.50;97.50
10848;DHT22;5477;48.806;9.154;2024-01-11T12:09:51;4.00;98.60
10848;DHT22;5477;48.806;9.154;2024-01-11T12:12:20;3.70;99.60
10848;DHT22;5477;48.806;9.154;2024-01-11T12:14:48;3.30;99.90
10848;DHT22;5477;48.806;9.154;2024-01-11T12:17:18;3.00;99.90
10848;DHT22;5477;48.806;9.154;2024-01-11T12:19:46;2.90;99.90
10848;DHT22;5477;48.806;9.154;2024-01-11T12:22:15;2.80;99.90
10848;DHT22;5477;48.806;9.154;2024-01-11T12:24:42;2.80;99.90
10848;DHT22;5477;48.806;9.154;2024-01-11T12:27:11;2.60;99.90
10848;DHT22;5477;48.806;9.154;2024-01-11T12:29:39;2.50;99.90
10848;DHT22;5477;48.806;9.154;2024-01-11T12:32:23;2.40;99.90
10848;DHT22;5477;48.806;9.154;2024-01-11T12:34:51;2.40;99.90
10848;DHT22;5477;48.806;9.154;2024-01-11T12:37:20;2.30;99.90
10848;DHT22;5477;48.806;9.154;2024-01-11T12:39:48;2.30;99.90
10848;DHT22;5477;48.806;9.154;2024-01-11T12:42:16;2.20;99.90
10848;DHT22;5477;48.806;9.154;2024-01-11T12:44:44;2.20;99.90
10848;DHT22;5477;48.806;9.154;2024-01-11T12:47:20;2.10;99.90
10848;DHT22;5477;48.806;9.154;2024-01-11T12:49:49;2.10;99.90
10848;DHT22;5477;48.806;9.154;2024-01-11T12:52:19;2.20;99.90
10848;DHT22;5477;48.806;9.154;2024-01-11T12:54:47;2.20;99.90
10848;DHT22;5477;48.806;9.154;2024-01-11T12:57:17;2.10;99.90
10848;DHT22;5477;48.806;9.154;2024-01-11T12:59:46;1.90;99.90
10848;DHT22;5477;48.806;9.154;2024-01-11T13:02:14;1.80;99.90
10848;DHT22;5477;48.806;9.154;2024-01-11T13:04:45;1.80;99.90
10848;DHT22;5477;48.806;9.154;2024-01-11T13:07:14;1.70;99.90
10848;DHT22;5477;48.806;9.154;2024-01-11T13:09:43;1.70;99.90
10848;DHT22;5477;48.806;9.154;2024-01-11T13:12:11;1.70;99.90
10848;DHT22;5477;48.806;9.154;2024-01-11T13:14:39;1.70;99.90
10848;DHT22;5477;48.806;9.154;2024-01-11T13:17:07;1.80;99.90
10848;DHT22;5477;48.806;9.154;2024-01-11T13:19:35;1.80;99.90
10848;DHT22;5477;48.806;9.154;2024-01-11T13:22:05;1.80;99.90
10848;DHT22;5477;48.806;9.154;2024-01-11T13:24:34;1.90;99.90
10848;DHT22;5477;48.806;9.154;2024-01-11T13:27:03;2.00;99.90
10848;DHT22;5477;48.806;9.154;2024-01-11T13:29:31;2.10;99.90
10848;DHT22;5477;48.806;9.154;2024-01-11T13:31:59;2.10;99.90
10848;DHT22;5477;48.806;9.154;2024-01-11T13:34:31;2.10;99.90
10848;DHT22;5477;48.806;9.154;2024-01-11T13:36:59;2.20;99.90
10848;DHT22;5477;48.806;9.154;2024-01-11T13:39:27;2.20;99.90
10848;DHT22;5477;48.806;9.154;2024-01-11T13:41:56;2.10;99.90
10848;DHT22;5477;48.806;9.154;2024-01-11T13:44:24;2.10;99.90
10848;DHT22;5477;48.806;9.154;2024-01-11T13:46:52;2.00;99.90
10848;DHT22;5477;48.806;9.154;2024-01-11T13:49:20;1.90;99.90
10848;DHT22;5477;48.806;9.154;2024-01-11T13:51:51;1.80;99.90
10848;DHT22;5477;48.806;9.154;2024-01-11T13:54:27;1.80;99.90
10848;DHT22;5477;48.806;9.154;2024-01-11T13:56:56;1.80;99.90
10848;DHT22;5477;48.806;9.154;2024-01-11T13:59:24;1.90;99.90
10848;DHT22;5477;48.806;9.154;2024-01-11T14:01:52;1.80;99.90
10848;DHT22;5477;48.806;9.154;2024-01-11T14:04:20;1.90;99.90
10848;DHT22;5477;48.806;9.154;2024-01-11T14:06:50;1.80;99.90
10848;DHT22;5477;48.806;9.154;2024-01-11T14:09:19;1.90;99.90
10848;DHT22;5477;48.806;9.154;2024-01-11T14:11:48;1.90;99.90
10848;DHT22;5477;48.806;9.154;2024-01-11T14:14:18;1.90;99.90
10848;DHT22;5477;48.806;9.154;2024-01-11T14:16:47;1.90;99.90
10848;DHT22;5477;48.806;9.154;2024-01-11T14:19:15;1.90;99.90
10848;DHT22;5477;48.806;9.154;2024-01-11T14:21:44;1.90;99.90
10848;DHT22;5477;48.806;9.154;2024-01-11T14:24:12;1.80;99.90
10848;DHT22;5477;48.806;9.154;2024-01-11T14:26:48;1.80;99.90
10848;DHT22;5477;48.806;9.154;2024-01-11T14:29:18;1.70;99.90
10848;DHT22;5477;48.806;9.154;2024-01-11T14:31:46;1.70;99.90
10848;DHT22;5477;48.806;9.154;2024-01-11T14:34:14;1.70;99.90
10848;DHT22;5477;48.806;9.154;2024-01-11T14:36:43;1.70;99.90
10848;DHT22;5477;48.806;9.154;2024-01-11T14:39:11;1.60;99.90
10848;DHT22;5477;48.806;9.154;2024-01-11T14:41:39;1.60;99.90
10848;DHT22;5477;48.806;9.154;2024-01-11T14:44:07;1.60;99.90
10848;DHT22;5477;48.806;9.154;2024-01-11T14:46:37;1.70;99.90
10848;DHT22;5477;48.806;9.154;2024-01-11T14:49:05;1.50;99.90
10848;DHT22;5477;48.806;9.154;2024-01-11T14:51:35;1.40;99.90
10848;DHT22;5477;48.806;9.154;2024-01-11T14:54:04;1.30;99.90
10848;DHT22;5477;48.806;9.154;2024-01-11T14:56:32;1.30;99.90
10848;DHT22;5477;48.806;9.154;2024-01-11T14:59:02;1.30;99.90
10848;DHT22;5477;48.806;9.154;2024-01-11T15:01:30;1.30;99.90
10848;DHT22;5477;48.806;9.154;2024-01-11T15:04:00;1.20;99.90
10848;DHT22;5477;48.806;9.154;2024-01-11T15:06:28;1.20;99.90
10848;DHT22;5477;48.806;9.154;2024-01-11T15:08:56;1.20;99.90
10848;DHT22;5477;48.806;9.154;2024-01-11T15:11:24;1.20;99.90
10848;DHT22;5477;48.806;9.154;2024-01-11T15:13:54;1.20;99.90
10848;DHT22;5477;48.806;9.154;2024-01-11T15:16:22;1.10;99.90
10848;DHT22;5477;48.806;9.154;2024-01-11T15:18:50;1.10;99.90
10848;DHT22;5477;48.806;9.154;2024-01-11T15:21:19;1.00;99.90
10848;DHT22;5477;48.806;9.154;2024-01-11T15:23:47;1.00;99.90
10848;DHT22;5477;48.806;9.154;2024-01-11T15:26:15;0.90;99.90
10848;DHT22;5477;48.806;9.154;2024-01-11T15:28:43;0.90;99.90
10848;DHT22;5477;48.806;9.154;2024-01-11T15:31:11;0.80;99.90
10848;DHT22;5477;48.806;9.154;2024-01-11T15:33:39;0.70;99.90
10848;DHT22;5477;48.806;9.154;2024-01-11T15:36:08;0.80;99.90
10848;DHT22;5477;48.806;9.154;2024-01-11T15:38:38;0.70;99.90
10848;DHT22;5477;48.806;9.154;2024-01-11T15:41:06;0.70;99.90
10848;DHT22;5477;48.806;9.154;2024-01-11T15:43:35;0.50;99.90
10848;DHT22;5477;48.806;9.154;2024-01-11T15:46:03;0.50;99.90
10848;DHT22;5477;48.806;9.154;2024-01-11T15:48:31;0.50;99.90
10848;DHT22;5477;48.806;9.154;2024-01-11T15:50:59;0.40;99.90
10848;DHT22;5477;48.806;9.154;2024-01-11T15:53:29;0.30;99.90
10848;DHT22;5477;48.806;9.154;2024-01-11T15:55:59;0.30;99.90
10848;DHT22;5477;48.806;9.154;2024-01-11T15:58:27;0.40;99.90
10848;DHT22;5477;48.806;9.154;2024-01-11T16:00:55;0.40;99.90
10848;DHT22;5477;48.806;9.154;2024-01-11T16:03:24;0.30;99.90